sensor_id;sensor_type;location;lat;lon;timestamp;P1;durP1;ratioP1;P2;durP2;ratioP2
47930;SDS011;33697;51.520;9.950;2022-10-16T00:02:08;1.40;;;0.82;;
47930;SDS011;33697;51.520;9.950;2022-10-16T00:04:34;4.65;;;0.75;;
47930;SDS011;33697;51.520;9.950;2022-10-16T00:07:01;3.17;;;0.80;;
47930;SDS011;33697;51.520;9.950;2022-10-16T00:09:27;1.70;;;1.00;;
47930;SDS011;33697;51.520;9.950;2022-10-16T00:11:54;3.25;;;0.75;;
47930;SDS011;33697;51.520;9.950;2022-10-16T00:14:25;2.92;;;0.85;;
47930;SDS011;33697;51.520;9.950;2022-10-16T00:16:51;1.23;;;0.80;;
47930;SDS011;33697;51.520;9.950;2022-10-16T00:19:17;0.80;;;0.60;;
47930;SDS011;33697;51.520;9.950;2022-10-16T00:21:44;1.85;;;1.33;;
47930;SDS011;33697;51.520;9.950;2022-10-16T00:24:10;2.17;;;0.85;;
47930;SDS011;33697;51.520;9.950;2022-10-16T00:26:37;3.00;;;0.90;;
47930;SDS011;33697;51.520;9.950;2022-10-16T00:29:04;1.70;;;0.80;;
47930;SDS011;33697;51.520;9.950;2022-10-16T00:31:30;1.38;;;0.73;;
47930;SDS011;33697;51.520;9.950;2022-10-16T00:33:57;1.50;;;0.70;;
47930;SDS011;33697;51.520;9.950;2022-10-16T00:36:24;2.33;;;1.25;;
47930;SDS011;33697;51.520;9.950;2022-10-16T00:38:51;1.55;;;0.88;;
47930;SDS011;33697;51.520;9.950;2022-10-16T00:41:20;1.23;;;0.93;;
47930;SDS011;33697;51.520;9.950;2022-10-16T00:43:51;1.02;;;0.93;;
47930;SDS011;33697;51.520;9.950;2022-10-16T00:49:30;3.03;;;1.17;;
47930;SDS011;33697;51.520;9.950;2022-10-16T00:51:41;3.72;;;0.90;;
47930;SDS011;33697;51.520;9.950;2022-10-16T00:54:09;4.20;;;1.05;;
47930;SDS011;33697;51.520;9.950;2022-10-16T00:56:36;2.70;;;0.80;;
47930;SDS011;33697;51.520;9.950;2022-10-16T00:59:07;1.45;;;0.50;;
47930;SDS011;33697;51.520;9.950;2022-10-16T01:01:33;3.33;;;1.35;;
47930;SDS011;33697;51.520;9.950;2022-10-16T01:04:00;1.80;;;0.98;;
47930;SDS011;33697;51.520;9.950;2022-10-16T01:09:13;1.05;;;0.60;;
47930;SDS011;33697;51.520;9.950;2022-10-16T01:14:15;3.08;;;1.02;;
47930;SDS011;33697;51.520;9.950;2022-10-16T01:16:45;4.32;;;1.70;;
47930;SDS011;33697;51.520;9.950;2022-10-16T01:21:40;2.08;;;1.02;;
47930;SDS011;33697;51.520;9.950;2022-10-16T01:29:42;5.30;;;1.42;;
47930;SDS011;33697;51.520;9.950;2022-10-16T01:32:13;2.85;;;1.30;;
47930;SDS011;33697;51.520;9.950;2022-10-16T01:34:48;0.93;;;0.82;;
47930;SDS011;33697;51.520;9.950;2022-10-16T01:37:16;2.72;;;1.02;;
47930;SDS011;33697;51.520;9.950;2022-10-16T01:39:45;1.80;;;1.08;;
47930;SDS011;33697;51.520;9.950;2022-10-16T01:42:14;2.42;;;1.10;;
47930;SDS011;33697;51.520;9.950;2022-10-16T01:44:42;2.78;;;1.15;;
47930;SDS011;33697;51.520;9.950;2022-10-16T01:47:09;1.13;;;0.70;;
47930;SDS011;33697;51.520;9.950;2022-10-16T01:49:37;2.60;;;0.90;;
47930;SDS011;33697;51.520;9.950;2022-10-16T01:52:05;1.10;;;0.93;;
47930;SDS011;33697;51.520;9.950;2022-10-16T01:54:33;4.50;;;1.15;;
47930;SDS011;33697;51.520;9.950;2022-10-16T01:57:00;1.75;;;0.80;;
47930;SDS011;33697;51.520;9.950;2022-10-16T01:59:27;1.80;;;1.65;;
47930;SDS011;33697;51.520;9.950;2022-10-16T02:01:58;4.35;;;0.90;;
47930;SDS011;33697;51.520;9.950;2022-10-16T02:04:33;1.50;;;0.77;;
47930;SDS011;33697;51.520;9.950;2022-10-16T02:07:00;1.25;;;0.73;;
47930;SDS011;33697;51.520;9.950;2022-10-16T02:09:26;2.00;;;0.85;;
47930;SDS011;33697;51.520;9.950;2022-10-16T02:11:53;1.10;;;0.85;;
47930;SDS011;33697;51.520;9.950;2022-10-16T02:14:22;3.45;;;1.17;;
47930;SDS011;33697;51.520;9.950;2022-10-16T02:16:50;0.65;;;0.45;;
47930;SDS011;33697;51.520;9.950;2022-10-16T02:19:17;2.15;;;0.90;;
47930;SDS011;33697;51.520;9.950;2022-10-16T02:24:18;2.35;;;1.10;;
47930;SDS011;33697;51.520;9.950;2022-10-16T02:26:49;1.02;;;0.98;;
47930;SDS011;33697;51.520;9.950;2022-10-16T02:29:17;2.13;;;0.73;;
47930;SDS011;33697;51.520;9.950;2022-10-16T02:31:47;3.15;;;1.30;;
47930;SDS011;33697;51.520;9.950;2022-10-16T02:34:15;1.48;;;0.73;;
47930;SDS011;33697;51.520;9.950;2022-10-16T02:36:42;3.00;;;1.52;;
47930;SDS011;33697;51.520;9.950;2022-10-16T02:39:09;6.72;;;1.20;;
47930;SDS011;33697;51.520;9.950;2022-10-16T02:41:35;1.35;;;0.82;;
47930;SDS011;33697;51.520;9.950;2022-10-16T02:44:02;1.75;;;0.80;;
47930;SDS011;33697;51.520;9.950;2022-10-16T02:46:28;1.85;;;1.00;;
47930;SDS011;33697;51.520;9.950;2022-10-16T02:48:54;2.63;;;1.25;;
47930;SDS011;33697;51.520;9.950;2022-10-16T02:51:21;2.75;;;0.95;;
47930;SDS011;33697;51.520;9.950;2022-10-16T02:53:47;8.82;;;3.33;;
47930;SDS011;33697;51.520;9.950;2022-10-16T02:56:13;1.98;;;1.63;;
47930;SDS011;33697;51.520;9.950;2022-10-16T02:58:40;2.33;;;1.73;;
47930;SDS011;33697;51.520;9.950;2022-10-16T03:01:06;2.35;;;0.82;;
47930;SDS011;33697;51.520;9.950;2022-10-16T03:03:32;1.50;;;0.68;;
47930;SDS011;33697;51.520;9.950;2022-10-16T03:05:59;7.03;;;0.93;;
47930;SDS011;33697;51.520;9.950;2022-10-16T03:08:25;1.30;;;0.70;;
47930;SDS011;33697;51.520;9.950;2022-10-16T03:10:52;3.35;;;1.13;;
47930;SDS011;33697;51.520;9.950;2022-10-16T03:13:18;1.73;;;1.15;;
47930;SDS011;33697;51.520;9.950;2022-10-16T03:15:46;1.05;;;0.70;;
47930;SDS011;33697;51.520;9.950;2022-10-16T03:18:12;1.85;;;0.85;;
47930;SDS011;33697;51.520;9.950;2022-10-16T03:20:39;1.75;;;1.25;;
47930;SDS011;33697;51.520;9.950;2022-10-16T03:23:05;1.30;;;1.20;;
47930;SDS011;33697;51.520;9.950;2022-10-16T03:25:34;1.88;;;1.02;;
47930;SDS011;33697;51.520;9.950;2022-10-16T03:28:00;1.85;;;1.55;;
47930;SDS011;33697;51.520;9.950;2022-10-16T03:30:26;2.83;;;1.30;;
47930;SDS011;33697;51.520;9.950;2022-10-16T03:32:53;1.63;;;1.20;;
47930;SDS011;33697;51.520;9.950;2022-10-16T03:35:20;1.73;;;1.05;;
47930;SDS011;33697;51.520;9.950;2022-10-16T03:37:47;1.05;;;0.95;;
47930;SDS011;33697;51.520;9.950;2022-10-16T03:40:13;5.43;;;1.15;;
47930;SDS011;33697;51.520;9.950;2022-10-16T03:42:40;2.53;;;1.67;;
47930;SDS011;33697;51.520;9.950;2022-10-16T03:45:08;2.45;;;0.93;;
47930;SDS011;33697;51.520;9.950;2022-10-16T03:47:34;2.35;;;1.38;;
47930;SDS011;33697;51.520;9.950;2022-10-16T03:50:00;3.15;;;1.08;;
47930;SDS011;33697;51.520;9.950;2022-10-16T03:52:27;1.05;;;0.95;;
47930;SDS011;33697;51.520;9.950;2022-10-16T03:54:53;3.40;;;1.10;;
47930;SDS011;33697;51.520;9.950;2022-10-16T03:57:20;2.88;;;1.25;;
47930;SDS011;33697;51.520;9.950;2022-10-16T03:59:46;1.35;;;1.25;;
47930;SDS011;33697;51.520;9.950;2022-10-16T04:02:13;3.42;;;1.35;;
47930;SDS011;33697;51.520;9.950;2022-10-16T04:04:39;1.30;;;1.15;;
47930;SDS011;33697;51.520;9.950;2022-10-16T04:07:05;1.60;;;1.50;;
47930;SDS011;33697;51.520;9.950;2022-10-16T04:09:31;4.00;;;1.42;;
47930;SDS011;33697;51.520;9.950;2022-10-16T04:11:58;2.20;;;1.55;;
47930;SDS011;33697;51.520;9.950;2022-10-16T04:14:24;2.42;;;1.40;;
47930;SDS011;33697;51.520;9.950;2022-10-16T04:16:50;5.70;;;1.83;;
47930;SDS011;33697;51.520;9.950;2022-10-16T04:19:17;1.63;;;1.52;;
47930;SDS011;33697;51.520;9.950;2022-10-16T04:21:43;2.15;;;1.95;;
47930;SDS011;33697;51.520;9.950;2022-10-16T04:24:09;10.48;;;2.60;;
47930;SDS011;33697;51.520;9.950;2022-10-16T04:26:37;1.80;;;1.60;;
47930;SDS011;33697;51.520;9.950;2022-10-16T04:29:03;3.80;;;1.38;;
47930;SDS011;33697;51.520;9.950;2022-10-16T04:31:30;2.97;;;1.17;;
47930;SDS011;33697;51.520;9.950;2022-10-16T04:33:56;2.90;;;1.38;;
47930;SDS011;33697;51.520;9.950;2022-10-16T04:36:22;2.90;;;1.35;;
47930;SDS011;33697;51.520;9.950;2022-10-16T04:38:54;3.17;;;1.42;;
47930;SDS011;33697;51.520;9.950;2022-10-16T04:41:20;2.42;;;1.50;;
47930;SDS011;33697;51.520;9.950;2022-10-16T04:43:46;2.90;;;1.73;;
47930;SDS011;33697;51.520;9.950;2022-10-16T04:46:13;2.40;;;1.30;;
47930;SDS011;33697;51.520;9.950;2022-10-16T04:48:39;3.13;;;1.40;;
47930;SDS011;33697;51.520;9.950;2022-10-16T04:51:05;1.52;;;0.90;;
47930;SDS011;33697;51.520;9.950;2022-10-16T04:53:32;1.30;;;1.10;;
47930;SDS011;33697;51.520;9.950;2022-10-16T04:55:59;1.17;;;0.90;;
47930;SDS011;33697;51.520;9.950;2022-10-16T04:58:25;1.58;;;0.93;;
47930;SDS011;33697;51.520;9.950;2022-10-16T05:00:51;2.42;;;0.90;;
47930;SDS011;33697;51.520;9.950;2022-10-16T05:03:18;5.25;;;1.10;;
47930;SDS011;33697;51.520;9.950;2022-10-16T05:05:44;1.77;;;1.00;;
47930;SDS011;33697;51.520;9.950;2022-10-16T05:08:12;1.80;;;1.08;;
47930;SDS011;33697;51.520;9.950;2022-10-16T05:10:38;1.30;;;0.98;;
47930;SDS011;33697;51.520;9.950;2022-10-16T05:13:05;3.33;;;1.15;;
47930;SDS011;33697;51.520;9.950;2022-10-16T05:15:31;4.20;;;0.90;;
47930;SDS011;33697;51.520;9.950;2022-10-16T05:17:57;5.68;;;0.70;;
47930;SDS011;33697;51.520;9.950;2022-10-16T05:20:24;2.80;;;0.57;;
47930;SDS011;33697;51.520;9.950;2022-10-16T05:22:50;0.75;;;0.70;;
47930;SDS011;33697;51.520;9.950;2022-10-16T05:25:16;0.88;;;0.52;;
47930;SDS011;33697;51.520;9.950;2022-10-16T05:27:43;1.05;;;0.32;;
47930;SDS011;33697;51.520;9.950;2022-10-16T05:30:09;4.10;;;0.75;;
47930;SDS011;33697;51.520;9.950;2022-10-16T05:32:37;1.05;;;0.50;;
47930;SDS011;33697;51.520;9.950;2022-10-16T05:35:04;0.82;;;0.63;;
47930;SDS011;33697;51.520;9.950;2022-10-16T05:37:35;1.95;;;0.40;;
47930;SDS011;33697;51.520;9.950;2022-10-16T05:40:01;0.85;;;0.73;;
47930;SDS011;33697;51.520;9.950;2022-10-16T05:42:30;4.60;;;0.50;;
47930;SDS011;33697;51.520;9.950;2022-10-16T05:44:57;1.30;;;0.60;;
47930;SDS011;33697;51.520;9.950;2022-10-16T05:47:23;1.13;;;0.38;;
47930;SDS011;33697;51.520;9.950;2022-10-16T05:49:50;6.30;;;0.60;;
47930;SDS011;33697;51.520;9.950;2022-10-16T05:52:16;2.80;;;0.52;;
47930;SDS011;33697;51.520;9.950;2022-10-16T05:54:43;1.10;;;0.65;;
47930;SDS011;33697;51.520;9.950;2022-10-16T05:57:10;0.70;;;0.50;;
47930;SDS011;33697;51.520;9.950;2022-10-16T05:59:36;1.45;;;0.55;;
47930;SDS011;33697;51.520;9.950;2022-10-16T06:02:03;1.17;;;0.60;;
47930;SDS011;33697;51.520;9.950;2022-10-16T06:04:29;0.77;;;0.63;;
47930;SDS011;33697;51.520;9.950;2022-10-16T06:06:57;2.08;;;0.70;;
47930;SDS011;33697;51.520;9.950;2022-10-16T06:09:26;1.45;;;0.63;;
47930;SDS011;33697;51.520;9.950;2022-10-16T06:11:52;2.17;;;0.85;;
47930;SDS011;33697;51.520;9.950;2022-10-16T06:14:18;2.40;;;0.80;;
47930;SDS011;33697;51.520;9.950;2022-10-16T06:16:45;1.30;;;0.47;;
47930;SDS011;33697;51.520;9.950;2022-10-16T06:19:11;1.20;;;0.80;;
47930;SDS011;33697;51.520;9.950;2022-10-16T06:21:37;7.80;;;1.35;;
47930;SDS011;33697;51.520;9.950;2022-10-16T06:24:04;1.42;;;1.30;;
47930;SDS011;33697;51.520;9.950;2022-10-16T06:26:30;1.13;;;0.93;;
47930;SDS011;33697;51.520;9.950;2022-10-16T06:28:57;1.02;;;0.65;;
47930;SDS011;33697;51.520;9.950;2022-10-16T06:31:24;1.67;;;1.58;;
47930;SDS011;33697;51.520;9.950;2022-10-16T06:33:57;3.53;;;0.68;;
47930;SDS011;33697;51.520;9.950;2022-10-16T06:36:23;1.13;;;0.43;;
47930;SDS011;33697;51.520;9.950;2022-10-16T06:38:50;5.78;;;0.70;;
47930;SDS011;33697;51.520;9.950;2022-10-16T06:41:18;1.27;;;0.40;;
47930;SDS011;33697;51.520;9.950;2022-10-16T06:43:44;0.68;;;0.40;;
47930;SDS011;33697;51.520;9.950;2022-10-16T06:46:12;3.00;;;0.40;;
47930;SDS011;33697;51.520;9.950;2022-10-16T06:48:38;1.95;;;0.38;;
47930;SDS011;33697;51.520;9.950;2022-10-16T06:51:06;0.70;;;0.40;;
47930;SDS011;33697;51.520;9.950;2022-10-16T06:53:34;1.40;;;0.43;;
47930;SDS011;33697;51.520;9.950;2022-10-16T06:56:21;4.22;;;0.70;;
47930;SDS011;33697;51.520;9.950;2022-10-16T06:58:47;4.80;;;0.30;;
47930;SDS011;33697;51.520;9.950;2022-10-16T07:01:14;0.65;;;0.30;;
47930;SDS011;33697;51.520;9.950;2022-10-16T07:03:42;5.30;;;0.45;;
47930;SDS011;33697;51.520;9.950;2022-10-16T07:06:09;2.45;;;0.60;;
47930;SDS011;33697;51.520;9.950;2022-10-16T07:08:36;2.50;;;0.98;;
47930;SDS011;33697;51.520;9.950;2022-10-16T07:11:04;0.80;;;0.60;;
47930;SDS011;33697;51.520;9.950;2022-10-16T07:13:38;0.60;;;0.38;;
47930;SDS011;33697;51.520;9.950;2022-10-16T07:16:14;0.93;;;0.52;;
47930;SDS011;33697;51.520;9.950;2022-10-16T07:18:40;8.23;;;1.58;;
47930;SDS011;33697;51.520;9.950;2022-10-16T07:21:18;1.13;;;0.40;;
47930;SDS011;33697;51.520;9.950;2022-10-16T07:23:53;0.77;;;0.40;;
47930;SDS011;33697;51.520;9.950;2022-10-16T07:26:19;0.85;;;0.28;;
47930;SDS011;33697;51.520;9.950;2022-10-16T07:28:46;1.40;;;0.30;;
47930;SDS011;33697;51.520;9.950;2022-10-16T07:31:15;0.82;;;0.40;;
47930;SDS011;33697;51.520;9.950;2022-10-16T07:33:42;3.05;;;0.38;;
47930;SDS011;33697;51.520;9.950;2022-10-16T07:36:10;1.58;;;0.30;;
47930;SDS011;33697;51.520;9.950;2022-10-16T07:38:41;1.25;;;0.20;;
47930;SDS011;33697;51.520;9.950;2022-10-16T07:41:09;2.78;;;0.35;;
47930;SDS011;33697;51.520;9.950;2022-10-16T07:43:36;1.60;;;0.40;;
47930;SDS011;33697;51.520;9.950;2022-10-16T07:46:02;2.92;;;0.40;;
47930;SDS011;33697;51.520;9.950;2022-10-16T07:48:33;0.70;;;0.28;;
47930;SDS011;33697;51.520;9.950;2022-10-16T07:51:00;0.65;;;0.30;;
47930;SDS011;33697;51.520;9.950;2022-10-16T07:53:27;1.02;;;0.28;;
47930;SDS011;33697;51.520;9.950;2022-10-16T07:56:03;1.38;;;0.20;;
47930;SDS011;33697;51.520;9.950;2022-10-16T07:58:30;2.60;;;0.20;;
47930;SDS011;33697;51.520;9.950;2022-10-16T08:00:57;1.60;;;0.30;;
47930;SDS011;33697;51.520;9.950;2022-10-16T08:03:24;1.05;;;0.20;;
47930;SDS011;33697;51.520;9.950;2022-10-16T08:05:50;1.63;;;0.30;;
47930;SDS011;33697;51.520;9.950;2022-10-16T08:08:17;0.93;;;0.30;;
47930;SDS011;33697;51.520;9.950;2022-10-16T08:10:44;1.55;;;0.28;;
47930;SDS011;33697;51.520;9.950;2022-10-16T08:13:10;0.60;;;0.30;;
47930;SDS011;33697;51.520;9.950;2022-10-16T08:15:37;2.63;;;0.80;;
47930;SDS011;33697;51.520;9.950;2022-10-16T08:18:04;2.13;;;0.22;;
47930;SDS011;33697;51.520;9.950;2022-10-16T08:20:31;1.52;;;0.30;;
47930;SDS011;33697;51.520;9.950;2022-10-16T08:22:58;2.83;;;0.50;;
47930;SDS011;33697;51.520;9.950;2022-10-16T08:25:24;1.40;;;0.40;;
47930;SDS011;33697;51.520;9.950;2022-10-16T08:27:51;3.08;;;0.30;;
47930;SDS011;33697;51.520;9.950;2022-10-16T08:30:17;0.43;;;0.20;;
47930;SDS011;33697;51.520;9.950;2022-10-16T08:32:47;1.08;;;0.20;;
47930;SDS011;33697;51.520;9.950;2022-10-16T08:35:28;0.57;;;0.20;;
47930;SDS011;33697;51.520;9.950;2022-10-16T08:37:54;1.85;;;0.17;;
47930;SDS011;33697;51.520;9.950;2022-10-16T08:45:25;3.70;;;0.30;;
47930;SDS011;33697;51.520;9.950;2022-10-16T08:50:38;2.70;;;0.13;;
47930;SDS011;33697;51.520;9.950;2022-10-16T08:53:06;1.40;;;0.03;;
47930;SDS011;33697;51.520;9.950;2022-10-16T08:55:43;1.90;;;0.13;;
47930;SDS011;33697;51.520;9.950;2022-10-16T08:58:13;0.28;;;0.00;;
47930;SDS011;33697;51.520;9.950;2022-10-16T09:00:39;0.30;;;0.03;;
47930;SDS011;33697;51.520;9.950;2022-10-16T09:03:11;0.85;;;0.10;;
47930;SDS011;33697;51.520;9.950;2022-10-16T09:10:58;2.05;;;0.28;;
47930;SDS011;33697;51.520;9.950;2022-10-16T09:13:31;0.73;;;0.22;;
47930;SDS011;33697;51.520;9.950;2022-10-16T09:16:10;2.28;;;0.10;;
47930;SDS011;33697;51.520;9.950;2022-10-16T09:21:19;2.88;;;0.00;;
47930;SDS011;33697;51.520;9.950;2022-10-16T09:23:47;6.60;;;0.00;;
47930;SDS011;33697;51.520;9.950;2022-10-16T09:26:14;2.78;;;0.20;;
47930;SDS011;33697;51.520;9.950;2022-10-16T09:28:41;0.85;;;0.03;;
47930;SDS011;33697;51.520;9.950;2022-10-16T09:31:13;2.95;;;0.00;;
47930;SDS011;33697;51.520;9.950;2022-10-16T09:33:40;0.80;;;0.20;;
47930;SDS011;33697;51.520;9.950;2022-10-16T09:36:08;0.50;;;0.00;;
47930;SDS011;33697;51.520;9.950;2022-10-16T09:38:35;0.93;;;0.00;;
47930;SDS011;33697;51.520;9.950;2022-10-16T09:41:21;3.58;;;0.08;;
47930;SDS011;33697;51.520;9.950;2022-10-16T09:43:49;0.40;;;0.05;;
47930;SDS011;33697;51.520;9.950;2022-10-16T09:48:44;4.07;;;1.30;;
47930;SDS011;33697;51.520;9.950;2022-10-16T09:51:18;2.67;;;0.10;;
47930;SDS011;33697;51.520;9.950;2022-10-16T09:53:46;4.18;;;0.20;;
47930;SDS011;33697;51.520;9.950;2022-10-16T09:56:20;0.57;;;0.22;;
47930;SDS011;33697;51.520;9.950;2022-10-16T09:58:51;0.32;;;0.00;;
47930;SDS011;33697;51.520;9.950;2022-10-16T10:01:17;1.05;;;0.15;;
47930;SDS011;33697;51.520;9.950;2022-10-16T10:03:45;2.38;;;0.17;;
47930;SDS011;33697;51.520;9.950;2022-10-16T10:06:16;4.82;;;0.10;;
47930;SDS011;33697;51.520;9.950;2022-10-16T10:24:55;1.35;;;0.25;;
47930;SDS011;33697;51.520;9.950;2022-10-16T10:32:24;0.40;;;0.10;;
47930;SDS011;33697;51.520;9.950;2022-10-16T10:35:02;0.40;;;0.20;;
47930;SDS011;33697;51.520;9.950;2022-10-16T10:42:46;2.13;;;0.13;;
47930;SDS011;33697;51.520;9.950;2022-10-16T10:50:22;2.50;;;0.05;;
47930;SDS011;33697;51.520;9.950;2022-10-16T10:52:58;1.23;;;0.20;;
47930;SDS011;33697;51.520;9.950;2022-10-16T10:58:58;2.63;;;0.25;;
47930;SDS011;33697;51.520;9.950;2022-10-16T11:06:23;0.10;;;0.00;;
47930;SDS011;33697;51.520;9.950;2022-10-16T11:09:12;1.35;;;0.00;;
47930;SDS011;33697;51.520;9.950;2022-10-16T11:11:42;0.20;;;0.00;;
47930;SDS011;33697;51.520;9.950;2022-10-16T11:14:24;1.70;;;0.10;;
47930;SDS011;33697;51.520;9.950;2022-10-16T11:16:52;1.80;;;0.10;;
47930;SDS011;33697;51.520;9.950;2022-10-16T11:19:24;0.57;;;0.00;;
47930;SDS011;33697;51.520;9.950;2022-10-16T11:22:03;1.00;;;0.00;;
47930;SDS011;33697;51.520;9.950;2022-10-16T11:26:56;1.35;;;0.00;;
47930;SDS011;33697;51.520;9.950;2022-10-16T11:29:30;0.03;;;0.00;;
47930;SDS011;33697;51.520;9.950;2022-10-16T11:32:04;3.80;;;0.00;;
47930;SDS011;33697;51.520;9.950;2022-10-16T11:34:32;3.45;;;0.10;;
47930;SDS011;33697;51.520;9.950;2022-10-16T11:37:10;1.90;;;0.00;;
47930;SDS011;33697;51.520;9.950;2022-10-16T11:39:38;0.30;;;0.00;;
47930;SDS011;33697;51.520;9.950;2022-10-16T11:56:05;0.20;;;0.00;;
47930;SDS011;33697;51.520;9.950;2022-10-16T11:58:32;0.60;;;0.00;;
47930;SDS011;33697;51.520;9.950;2022-10-16T12:03:32;0.40;;;0.00;;
47930;SDS011;33697;51.520;9.950;2022-10-16T12:06:11;1.30;;;0.10;;
47930;SDS011;33697;51.520;9.950;2022-10-16T12:08:39;0.45;;;0.00;;
47930;SDS011;33697;51.520;9.950;2022-10-16T12:11:08;0.15;;;0.00;;
47930;SDS011;33697;51.520;9.950;2022-10-16T12:13:39;0.20;;;0.00;;
47930;SDS011;33697;51.520;9.950;2022-10-16T12:18:32;0.55;;;0.00;;
47930;SDS011;33697;51.520;9.950;2022-10-16T12:20:59;3.15;;;0.00;;
47930;SDS011;33697;51.520;9.950;2022-10-16T12:23:30;1.92;;;0.00;;
47930;SDS011;33697;51.520;9.950;2022-10-16T12:25:59;0.10;;;0.00;;
47930;SDS011;33697;51.520;9.950;2022-10-16T12:28:26;0.10;;;0.00;;
47930;SDS011;33697;51.520;9.950;2022-10-16T12:34:01;1.75;;;0.00;;
47930;SDS011;33697;51.520;9.950;2022-10-16T12:36:32;0.93;;;0.05;;
47930;SDS011;33697;51.520;9.950;2022-10-16T12:38:59;0.20;;;0.05;;
47930;SDS011;33697;51.520;9.950;2022-10-16T12:41:30;0.00;;;0.00;;
47930;SDS011;33697;51.520;9.950;2022-10-16T12:43:56;0.95;;;0.00;;
47930;SDS011;33697;51.520;9.950;2022-10-16T12:46:26;0.55;;;0.00;;
47930;SDS011;33697;51.520;9.950;2022-10-16T12:49:06;5.25;;;1.25;;
47930;SDS011;33697;51.520;9.950;2022-10-16T12:51:35;0.40;;;0.00;;
47930;SDS011;33697;51.520;9.950;2022-10-16T12:54:11;1.00;;;0.00;;
47930;SDS011;33697;51.520;9.950;2022-10-16T13:07:15;0.28;;;0.00;;
47930;SDS011;33697;51.520;9.950;2022-10-16T13:15:07;0.70;;;0.00;;
47930;SDS011;33697;51.520;9.950;2022-10-16T13:23:36;0.50;;;0.00;;
47930;SDS011;33697;51.520;9.950;2022-10-16T13:28:15;4.78;;;0.00;;
47930;SDS011;33697;51.520;9.950;2022-10-16T13:30:43;1.02;;;0.15;;
47930;SDS011;33697;51.520;9.950;2022-10-16T13:33:30;1.83;;;0.00;;
47930;SDS011;33697;51.520;9.950;2022-10-16T13:35:58;0.40;;;0.00;;
47930;SDS011;33697;51.520;9.950;2022-10-16T13:38:28;0.52;;;0.00;;
47930;SDS011;33697;51.520;9.950;2022-10-16T13:43:23;3.40;;;0.08;;
47930;SDS011;33697;51.520;9.950;2022-10-16T13:48:37;1.55;;;0.10;;
47930;SDS011;33697;51.520;9.950;2022-10-16T13:51:05;0.75;;;0.00;;
47930;SDS011;33697;51.520;9.950;2022-10-16T13:53:35;1.27;;;0.10;;
47930;SDS011;33697;51.520;9.950;2022-10-16T13:58:28;0.45;;;0.00;;
47930;SDS011;33697;51.520;9.950;2022-10-16T14:01:15;3.38;;;0.03;;
47930;SDS011;33697;51.520;9.950;2022-10-16T14:03:42;1.03;;;0.07;;
47930;SDS011;33697;51.520;9.950;2022-10-16T14:06:16;1.35;;;0.00;;
47930;SDS011;33697;51.520;9.950;2022-10-16T14:09:21;1.98;;;0.00;;
47930;SDS011;33697;51.520;9.950;2022-10-16T14:11:42;0.40;;;0.00;;
47930;SDS011;33697;51.520;9.950;2022-10-16T14:14:11;1.23;;;0.00;;
47930;SDS011;33697;51.520;9.950;2022-10-16T14:16:38;2.78;;;0.22;;
47930;SDS011;33697;51.520;9.950;2022-10-16T14:19:06;2.03;;;0.00;;
47930;SDS011;33697;51.520;9.950;2022-10-16T14:21:48;2.65;;;0.00;;
47930;SDS011;33697;51.520;9.950;2022-10-16T14:24:32;0.88;;;0.00;;
47930;SDS011;33697;51.520;9.950;2022-10-16T14:26:59;0.30;;;0.00;;
47930;SDS011;33697;51.520;9.950;2022-10-16T14:29:27;2.45;;;0.15;;
47930;SDS011;33697;51.520;9.950;2022-10-16T14:34:41;0.00;;;0.00;;
47930;SDS011;33697;51.520;9.950;2022-10-16T14:37:15;1.77;;;0.00;;
47930;SDS011;33697;51.520;9.950;2022-10-16T14:39:50;0.43;;;0.00;;
47930;SDS011;33697;51.520;9.950;2022-10-16T14:42:17;4.45;;;0.10;;
47930;SDS011;33697;51.520;9.950;2022-10-16T14:44:45;1.48;;;0.30;;
47930;SDS011;33697;51.520;9.950;2022-10-16T14:47:15;0.40;;;0.10;;
47930;SDS011;33697;51.520;9.950;2022-10-16T14:49:43;0.57;;;0.00;;
47930;SDS011;33697;51.520;9.950;2022-10-16T14:52:10;1.45;;;0.17;;
47930;SDS011;33697;51.520;9.950;2022-10-16T14:54:36;0.38;;;0.10;;
47930;SDS011;33697;51.520;9.950;2022-10-16T14:57:02;1.38;;;0.00;;
47930;SDS011;33697;51.520;9.950;2022-10-16T14:59:33;0.38;;;0.00;;
47930;SDS011;33697;51.520;9.950;2022-10-16T15:04:46;0.75;;;0.22;;
47930;SDS011;33697;51.520;9.950;2022-10-16T15:07:13;1.25;;;0.00;;
47930;SDS011;33697;51.520;9.950;2022-10-16T15:09:39;0.10;;;0.00;;
47930;SDS011;33697;51.520;9.950;2022-10-16T15:12:14;1.92;;;0.00;;
47930;SDS011;33697;51.520;9.950;2022-10-16T15:14:40;6.07;;;0.10;;
47930;SDS011;33697;51.520;9.950;2022-10-16T15:17:08;0.35;;;0.00;;
47930;SDS011;33697;51.520;9.950;2022-10-16T15:19:35;0.77;;;0.00;;
47930;SDS011;33697;51.520;9.950;2022-10-16T15:22:01;1.13;;;0.00;;
47930;SDS011;33697;51.520;9.950;2022-10-16T15:24:27;2.28;;;0.10;;
47930;SDS011;33697;51.520;9.950;2022-10-16T15:26:55;1.08;;;0.00;;
47930;SDS011;33697;51.520;9.950;2022-10-16T15:29:21;3.60;;;0.05;;
47930;SDS011;33697;51.520;9.950;2022-10-16T15:31:47;3.75;;;0.10;;
47930;SDS011;33697;51.520;9.950;2022-10-16T15:34:14;1.75;;;0.00;;
47930;SDS011;33697;51.520;9.950;2022-10-16T15:36:40;0.25;;;0.00;;
47930;SDS011;33697;51.520;9.950;2022-10-16T15:39:13;0.68;;;0.08;;
47930;SDS011;33697;51.520;9.950;2022-10-16T15:41:40;0.73;;;0.20;;
47930;SDS011;33697;51.520;9.950;2022-10-16T15:44:07;1.98;;;0.77;;
47930;SDS011;33697;51.520;9.950;2022-10-16T15:46:33;4.68;;;0.63;;
47930;SDS011;33697;51.520;9.950;2022-10-16T15:49:00;1.33;;;0.20;;
47930;SDS011;33697;51.520;9.950;2022-10-16T15:51:27;1.33;;;0.30;;
47930;SDS011;33697;51.520;9.950;2022-10-16T15:53:58;2.22;;;0.20;;
47930;SDS011;33697;51.520;9.950;2022-10-16T15:56:27;3.17;;;0.10;;
47930;SDS011;33697;51.520;9.950;2022-10-16T15:58:54;0.50;;;0.10;;
47930;SDS011;33697;51.520;9.950;2022-10-16T16:01:21;0.50;;;0.10;;
47930;SDS011;33697;51.520;9.950;2022-10-16T16:03:47;3.05;;;0.00;;
47930;SDS011;33697;51.520;9.950;2022-10-16T16:06:18;0.93;;;0.20;;
47930;SDS011;33697;51.520;9.950;2022-10-16T16:08:44;1.58;;;0.28;;
47930;SDS011;33697;51.520;9.950;2022-10-16T16:11:11;2.45;;;0.32;;
47930;SDS011;33697;51.520;9.950;2022-10-16T16:13:39;1.95;;;0.43;;
47930;SDS011;33697;51.520;9.950;2022-10-16T16:16:07;4.50;;;0.10;;
47930;SDS011;33697;51.520;9.950;2022-10-16T16:18:34;5.25;;;0.40;;
47930;SDS011;33697;51.520;9.950;2022-10-16T16:21:00;1.98;;;0.35;;
47930;SDS011;33697;51.520;9.950;2022-10-16T16:23:26;3.85;;;0.55;;
47930;SDS011;33697;51.520;9.950;2022-10-16T16:26:06;1.00;;;0.35;;
47930;SDS011;33697;51.520;9.950;2022-10-16T16:28:32;1.52;;;0.38;;
47930;SDS011;33697;51.520;9.950;2022-10-16T16:30:59;1.05;;;0.10;;
47930;SDS011;33697;51.520;9.950;2022-10-16T16:33:25;1.85;;;0.22;;
47930;SDS011;33697;51.520;9.950;2022-10-16T16:35:55;2.60;;;0.10;;
47930;SDS011;33697;51.520;9.950;2022-10-16T16:38:22;1.00;;;0.10;;
47930;SDS011;33697;51.520;9.950;2022-10-16T16:40:48;1.67;;;0.20;;
47930;SDS011;33697;51.520;9.950;2022-10-16T16:43:24;0.60;;;0.10;;
47930;SDS011;33697;51.520;9.950;2022-10-16T16:48:17;1.52;;;0.30;;
47930;SDS011;33697;51.520;9.950;2022-10-16T16:50:43;4.70;;;0.45;;
47930;SDS011;33697;51.520;9.950;2022-10-16T16:53:10;3.92;;;0.00;;
47930;SDS011;33697;51.520;9.950;2022-10-16T16:55:36;0.43;;;0.00;;
47930;SDS011;33697;51.520;9.950;2022-10-16T16:58:02;1.98;;;0.10;;
47930;SDS011;33697;51.520;9.950;2022-10-16T17:00:29;4.68;;;0.20;;
47930;SDS011;33697;51.520;9.950;2022-10-16T17:02:57;2.28;;;0.32;;
47930;SDS011;33697;51.520;9.950;2022-10-16T17:05:23;5.22;;;0.38;;
47930;SDS011;33697;51.520;9.950;2022-10-16T17:07:49;0.88;;;0.30;;
47930;SDS011;33697;51.520;9.950;2022-10-16T17:10:15;2.10;;;0.30;;
47930;SDS011;33697;51.520;9.950;2022-10-16T17:12:42;2.17;;;0.50;;
47930;SDS011;33697;51.520;9.950;2022-10-16T17:15:08;1.75;;;0.47;;
47930;SDS011;33697;51.520;9.950;2022-10-16T17:17:35;0.70;;;0.32;;